Portada
METAR-TAF:

METAR-TAF

Aeroports :

Damasc, Síria

latitud: 33-25N, longitud: 036-31E, altitud: 608 m

Observació

L'informe es va fer fa 54 minuts, a les 02:00 UTC
Vent 16 kt del Sud/Sud-Oest
Temperatura 19°C
Humitat 83%
Pressió 1008 hPa
Visibilitat 10 km o més
sense núvols per sota de 1500 mi sense presència de cumulonimbus.

METAR: OSDI 200200Z 21016KT CAVOK 19/16 Q1008

Hora: 05:54 (02:54 UTC)

Pronòstic

L'informe es va fer fa 3 hores i 54 minuts, a les 23:00 UTC
Pronòstic vàlid del 20 a les 00 UTC al 21 a les 06 UTC
Vent 10 kt del Sud-Oest
Visibilitat 10 km o més
sense núvols per sota de 1500 mi sense presència de cumulonimbus.
Temporalment
l' 20 a les 09 UTC al 20 a les 20 UTC
Vent 15 kt del Oest amb ràfegues de 30 kt

TAF: OSDI 192300Z 2000/2106 22010KT CAVOK TEMPO 2009/2020 26015G30KT

Observacions i pronòstics meteorològics de més de 4000 aeroports (METAR i TAF).

Les estacions disponibles són els punts grocs i vermells al mapa.

Posi el ratolí al punt desitjat per veure el nom de l'estació.

Feu clic per veure les observacions i els pronòstics meteorològics.

Per canviar el mapa: feu clic els botons verds amb una creu de color negre per apropar; al botó verd amb un guió per allunyar la imatge; o en les fletxes verdes per a mapes adjacents.


METAR-TAF: